Time;durP1;ratioP1;P1;durP2;ratioP2;P2;SDS_P1;SDS_P2;PMS_P1;PMS_P2;Temp;Humidity;BMP_temperature;BMP_pressure;BME280_temperature;BME280_humidity;BME280_pressure;Samples;Min_cycle;Max_cycle;Signal;HPM_P1;HPM_P2
2022/05/07 00:02:16;;;;;;;9.83;8.93;;;17.50;84.10;18.00;96922.00;;;;5052638;28;20208;-82
2022/05/07 00:04:43;;;;;;;10.63;9.63;;;17.50;84.10;18.00;96920.00;;;;5054129;28;20224;-82
2022/05/07 00:07:12;;;;;;;11.17;10.17;;;17.50;84.10;18.00;96922.00;;;;5054947;28;20200;-81
2022/05/07 00:09:40;;;;;;;9.87;8.97;;;17.60;84.00;18.00;96911.00;;;;5041419;28;20231;-82
2022/05/07 00:12:08;;;;;;;10.27;9.37;;;17.50;83.90;18.00;96914.00;;;;5036102;28;20202;-82
2022/05/07 00:14:36;;;;;;;10.27;9.37;;;17.50;84.00;18.10;96909.00;;;;5048684;28;20202;-82
2022/05/07 00:19:48;;;;;;;10.87;9.77;;;17.50;84.10;18.10;96907.00;;;;5046810;28;20219;-81
2022/05/07 00:22:17;;;;;;;10.77;9.80;;;17.50;84.10;18.10;96905.00;;;;5055538;28;20260;-81
2022/05/07 00:24:44;;;;;;;10.30;9.40;;;17.50;84.10;18.10;96909.00;;;;5045929;28;20279;-81
2022/05/07 00:27:13;;;;;;;10.07;9.17;;;17.50;84.10;18.10;96906.00;;;;5042503;28;20273;-81
2022/05/07 00:29:41;;;;;;;11.43;10.43;;;17.50;84.10;18.10;96908.00;;;;5040017;28;20206;-81
2022/05/07 00:32:09;;;;;;;11.57;10.37;;;17.60;84.10;18.10;96910.00;;;;5053893;28;20200;-82
2022/05/07 00:34:37;;;;;;;11.67;10.60;;;17.50;84.10;18.10;96904.00;;;;5052049;28;20196;-82
2022/05/07 00:37:05;;;;;;;11.57;10.47;;;17.60;84.10;18.10;96904.00;;;;5048524;28;20196;-82
2022/05/07 00:39:33;;;;;;;11.77;10.67;;;17.50;84.10;18.10;96897.00;;;;5051197;28;20200;-82
2022/05/07 00:42:06;;;;;;;11.93;10.80;;;17.60;84.10;18.10;96895.00;;;;5041005;28;20199;-82
2022/05/07 00:44:35;;;;;;;12.30;11.20;;;17.60;83.90;18.10;96894.00;;;;5045378;28;20203;-81
2022/05/07 00:47:17;;;;;;;12.27;11.10;;;17.50;83.90;18.00;96894.00;;;;5049969;28;20208;-82
2022/05/07 00:49:49;;;;;;;11.10;10.10;;;17.60;83.90;18.00;96884.00;;;;5046744;28;20236;-82
2022/05/07 00:52:18;;;;;;;11.30;10.20;;;17.50;83.90;18.00;96883.00;;;;5045297;28;20197;-82
2022/05/07 00:54:48;;;;;;;11.80;10.70;;;17.80;84.00;18.00;96882.00;;;;5046211;28;20223;-82
2022/05/07 00:57:17;;;;;;;11.67;10.57;;;17.50;83.70;18.00;96880.00;;;;5054171;28;20200;-81
2022/05/07 00:59:45;;;;;;;11.83;10.77;;;17.50;83.70;18.00;96883.00;;;;5050532;28;20193;-82
2022/05/07 01:02:12;;;;;;;12.03;10.83;;;17.50;83.60;18.00;96880.00;;;;5048090;28;20200;-82
2022/05/07 01:04:39;;;;;;;11.97;10.87;;;17.50;83.50;18.00;96877.00;;;;5046465;28;20202;-83
2022/05/07 01:07:06;;;;;;;11.33;10.33;;;17.50;83.50;17.90;96874.00;;;;5044676;28;20720;-82
2022/05/07 01:09:33;;;;;;;12.43;11.23;;;17.40;83.60;17.90;96875.00;;;;5043022;28;20843;-83
2022/05/07 01:12:02;;;;;;;11.60;10.50;;;17.40;83.50;17.90;96873.00;;;;5043919;28;20200;-82
2022/05/07 01:14:29;;;;;;;11.10;10.03;;;17.40;83.50;17.90;96866.00;;;;5046556;28;20204;-84
2022/05/07 01:16:56;;;;;;;12.00;10.90;;;17.40;83.50;17.90;96867.00;;;;5042208;28;20847;-82
2022/05/07 01:19:23;;;;;;;11.40;10.40;;;17.40;83.50;17.90;96871.00;;;;5042343;28;20658;-82
2022/05/07 01:21:52;;;;;;;11.50;10.40;;;17.40;83.50;17.80;96857.00;;;;5040755;28;20273;-81
2022/05/07 01:24:19;;;;;;;11.13;10.03;;;17.30;83.40;17.80;96866.00;;;;5047792;28;20220;-81
2022/05/07 01:26:46;;;;;;;11.00;10.00;;;17.30;83.40;17.80;96865.00;;;;5040106;28;20590;-83
2022/05/07 01:29:13;;;;;;;11.27;10.17;;;17.40;83.30;17.80;96867.00;;;;5044355;28;20200;-81
2022/05/07 01:31:40;;;;;;;10.57;9.60;;;17.30;83.20;17.70;96863.00;;;;5044495;28;20307;-82
2022/05/07 01:34:06;;;;;;;11.33;10.33;;;17.30;83.40;17.70;96869.00;;;;5042463;28;20205;-82
2022/05/07 01:36:33;;;;;;;10.57;9.57;;;17.30;83.50;17.70;96864.00;;;;5045332;28;20224;-83
2022/05/07 01:39:02;;;;;;;10.90;9.90;;;17.20;83.40;17.60;96864.00;;;;5049152;28;20264;-81
2022/05/07 01:41:29;;;;;;;11.50;10.43;;;17.20;83.50;17.60;96867.00;;;;5051918;28;20192;-82
2022/05/07 01:43:56;;;;;;;10.83;9.87;;;17.20;83.50;17.60;96865.00;;;;5040625;28;20204;-83
2022/05/07 01:49:08;;;;;;;11.73;10.63;;;17.20;83.60;17.60;96862.00;;;;5041126;28;20300;-82
2022/05/07 01:51:35;;;;;;;12.07;10.97;;;17.10;84.30;17.60;96861.00;;;;5044772;28;20224;-81
2022/05/07 01:54:05;;;;;;;11.53;10.37;;;17.10;83.60;17.60;96855.00;;;;5048019;28;20646;-83
2022/05/07 01:56:35;;;;;;;11.23;10.23;;;17.10;83.80;17.60;96865.00;;;;5043664;28;20209;-81
2022/05/07 01:59:02;;;;;;;11.17;10.17;;;17.10;84.70;17.60;96857.00;;;;5045408;28;20200;-82
2022/05/07 02:01:29;;;;;;;11.57;10.57;;;17.10;84.10;17.60;96848.00;;;;5044383;28;20203;-81
2022/05/07 02:03:56;;;;;;;11.77;10.60;;;17.10;84.20;17.60;96863.00;;;;5047234;28;20657;-83
2022/05/07 02:06:23;;;;;;;10.97;9.97;;;17.10;84.10;17.60;96861.00;;;;5038280;28;20690;-81
2022/05/07 02:08:50;;;;;;;11.57;10.53;;;17.10;84.20;17.60;96855.00;;;;5043698;28;20190;-81
2022/05/07 02:11:18;;;;;;;11.23;10.13;;;17.10;84.30;17.60;96858.00;;;;5040546;28;20584;-83
2022/05/07 02:13:45;;;;;;;11.70;10.60;;;17.10;84.30;17.60;96853.00;;;;5041604;28;20671;-82
2022/05/07 02:16:12;;;;;;;12.00;10.73;;;17.10;84.30;17.60;96857.00;;;;5050262;28;20218;-83
2022/05/07 02:18:39;;;;;;;11.90;10.80;;;17.10;84.30;17.60;96845.00;;;;5070727;22;20235;-85
2022/05/07 02:21:06;;;;;;;12.40;11.20;;;17.10;84.40;17.60;96850.00;;;;5076432;28;20227;-85
2022/05/07 02:23:33;;;;;;;10.83;9.90;;;17.10;84.40;17.60;96851.00;;;;5076674;28;20295;-86
2022/05/07 02:26:01;;;;;;;11.47;10.43;;;17.10;84.50;17.60;96848.00;;;;5072915;28;20304;-86
2022/05/07 02:28:29;;;;;;;12.37;11.07;;;17.00;84.40;17.60;96850.00;;;;5073059;22;20228;-84
2022/05/07 02:30:56;;;;;;;11.90;10.50;;;17.10;84.50;17.60;96841.00;;;;5057923;28;20307;-83
2022/05/07 02:33:23;;;;;;;11.07;10.07;;;17.10;84.40;17.60;96839.00;;;;5073843;28;20631;-84
2022/05/07 02:35:50;;;;;;;11.07;10.10;;;17.10;84.30;17.60;96847.00;;;;5075664;28;20200;-84
2022/05/07 02:38:17;;;;;;;12.40;11.20;;;17.10;84.30;17.60;96853.00;;;;5069282;28;20283;-84
2022/05/07 02:43:36;;;;;;;12.97;10.63;;;17.10;84.40;17.60;96852.00;;;;4989686;28;20195;-83
2022/05/07 02:46:03;;;;;;;12.57;11.47;;;17.10;84.40;17.60;96851.00;;;;5055779;28;20224;-83
2022/05/07 02:48:35;;;;;;;12.17;11.03;;;17.20;85.10;17.60;96849.00;;;;5048798;28;20224;-83
2022/05/07 02:51:02;;;;;;;12.27;11.17;;;17.10;84.40;17.60;96846.00;;;;5055537;28;20227;-85
2022/05/07 02:53:30;;;;;;;12.23;11.10;;;17.20;84.40;17.60;96849.00;;;;5050108;28;20228;-85
2022/05/07 02:55:57;;;;;;;11.80;10.70;;;17.10;84.10;17.60;96849.00;;;;5062101;28;20304;-86
2022/05/07 02:58:24;;;;;;;12.00;10.80;;;17.10;84.00;17.60;96852.00;;;;5050155;28;20200;-85
2022/05/07 03:02:03;;;;;;;12.07;11.00;;;17.10;84.00;17.60;96851.00;;;;5052511;28;20200;-85
2022/05/07 03:04:32;;;;;;;11.93;10.83;;;17.10;83.80;17.60;96848.00;;;;4992615;28;20688;-86
2022/05/07 03:06:59;;;;;;;11.47;10.53;;;17.10;84.10;17.60;96854.00;;;;5045680;28;20232;-86
2022/05/07 03:09:26;;;;;;;12.27;11.17;;;17.10;84.20;17.60;96853.00;;;;5048613;28;20203;-86
2022/05/07 03:11:53;;;;;;;12.67;11.57;;;17.10;84.30;17.60;96850.00;;;;5043842;28;20986;-86
2022/05/07 03:14:21;;;;;;;12.33;11.23;;;17.10;84.40;17.60;96854.00;;;;5051496;28;20636;-85
2022/05/07 03:16:49;;;;;;;12.23;11.03;;;17.10;84.60;17.60;96854.00;;;;5043765;28;20909;-86
2022/05/07 03:19:16;;;;;;;12.00;10.90;;;17.10;84.60;17.60;96848.00;;;;5047178;28;20196;-86
2022/05/07 03:21:44;;;;;;;12.60;11.37;;;17.10;84.60;17.60;96852.00;;;;5050954;28;20207;-86
2022/05/07 03:24:11;;;;;;;13.10;11.83;;;17.10;84.80;17.70;96853.00;;;;5057774;28;20220;-86
2022/05/07 03:26:38;;;;;;;13.23;11.93;;;17.20;84.80;17.70;96854.00;;;;5046810;28;20206;-86
2022/05/07 03:29:05;;;;;;;13.00;11.70;;;17.20;85.40;17.70;96852.00;;;;5046214;28;20296;-86
2022/05/07 03:31:39;;;;;;;12.30;11.20;;;17.20;84.70;17.70;96848.00;;;;5056610;28;20311;-86
2022/05/07 03:34:08;;;;;;;13.00;11.80;;;17.20;84.50;17.70;96845.00;;;;5052659;28;20201;-86
2022/05/07 03:36:36;;;;;;;12.40;11.30;;;17.20;84.50;17.80;96847.00;;;;5052435;28;20613;-86
2022/05/07 03:39:03;;;;;;;13.03;11.73;;;17.10;84.50;17.80;96845.00;;;;5055963;28;20227;-84
2022/05/07 03:41:30;;;;;;;14.13;12.13;;;17.20;84.50;17.80;96849.00;;;;5044160;28;20283;-85
2022/05/07 03:43:57;;;;;;;15.30;11.97;;;17.20;84.40;17.80;96850.00;;;;5058781;28;20283;-84
2022/05/07 03:46:25;;;;;;;13.10;11.80;;;17.20;84.40;17.70;96855.00;;;;5056033;28;20740;-84
2022/05/07 03:48:53;;;;;;;13.50;12.20;;;17.20;84.20;17.70;96851.00;;;;5059497;28;20287;-85
2022/05/07 03:51:21;;;;;;;12.67;11.47;;;17.20;84.10;17.70;96855.00;;;;5046170;28;20225;-84
2022/05/07 03:53:47;;;;;;;12.30;11.20;;;17.20;84.20;17.70;96858.00;;;;5054030;28;20556;-84
2022/05/07 03:56:16;;;;;;;13.00;11.73;;;17.20;84.30;17.70;96848.00;;;;5046335;28;20244;-84
2022/05/07 03:58:43;;;;;;;12.93;11.63;;;17.20;84.40;17.70;96848.00;;;;5051812;28;20280;-85
2022/05/07 04:01:10;;;;;;;13.17;11.93;;;17.20;84.40;17.70;96853.00;;;;5044150;28;20292;-84
2022/05/07 04:03:38;;;;;;;13.77;12.43;;;17.20;84.50;17.70;96851.00;;;;5051079;28;20271;-84
2022/05/07 04:06:05;;;;;;;12.83;11.63;;;17.20;84.40;17.70;96853.00;;;;5047558;28;20220;-84
2022/05/07 04:08:34;;;;;;;12.33;11.13;;;17.20;84.40;17.70;96849.00;;;;5062046;28;20244;-84
2022/05/07 04:11:01;;;;;;;12.20;11.00;;;17.20;84.40;17.70;96851.00;;;;5041068;28;20256;-84
2022/05/07 04:13:29;;;;;;;13.07;11.83;;;17.20;84.50;17.70;96848.00;;;;5051551;28;20193;-84
2022/05/07 04:15:56;;;;;;;12.90;11.73;;;17.20;84.60;17.80;96852.00;;;;5044553;28;20231;-84
2022/05/07 04:18:23;;;;;;;13.27;12.07;;;17.30;84.60;17.80;96852.00;;;;5049656;28;20216;-84
2022/05/07 04:20:50;;;;;;;12.60;11.30;;;17.30;84.50;17.80;96853.00;;;;5044809;28;21181;-84
2022/05/07 04:23:17;;;;;;;12.40;11.13;;;17.10;84.30;17.80;96851.00;;;;5052306;28;20220;-84
2022/05/07 04:25:45;;;;;;;12.83;11.63;;;17.20;84.30;17.80;96857.00;;;;5028999;28;20284;-83
2022/05/07 04:28:13;;;;;;;12.70;11.60;;;17.20;84.20;17.80;96854.00;;;;5040077;28;20204;-84
2022/05/07 04:30:40;;;;;;;12.37;11.23;;;17.20;84.20;17.80;96862.00;;;;5042641;28;20599;-84
2022/05/07 04:33:07;;;;;;;12.43;11.30;;;17.30;84.40;17.80;96856.00;;;;5042150;28;20246;-84
2022/05/07 04:35:34;;;;;;;14.03;12.73;;;17.30;84.60;17.80;96854.00;;;;5049586;28;20189;-84
2022/05/07 04:38:01;;;;;;;13.27;12.00;;;17.30;84.70;17.80;96850.00;;;;5051642;28;20217;-86
2022/05/07 04:40:29;;;;;;;12.33;11.23;;;17.30;84.70;17.80;96863.00;;;;5038006;28;20196;-85
2022/05/07 04:42:58;;;;;;;12.70;11.50;;;17.30;84.80;17.80;96859.00;;;;5057893;28;20208;-83
2022/05/07 04:45:27;;;;;;;14.33;12.83;;;17.30;84.80;17.90;96857.00;;;;5047474;28;20197;-83
2022/05/07 04:47:55;;;;;;;13.13;11.90;;;17.30;84.70;17.90;96861.00;;;;5051822;28;20213;-84
2022/05/07 04:50:22;;;;;;;13.33;12.13;;;17.30;84.70;17.90;96857.00;;;;5046483;28;20705;-84
2022/05/07 04:52:49;;;;;;;14.30;12.90;;;17.30;84.70;17.90;96862.00;;;;5059486;28;20248;-84
2022/05/07 04:55:16;;;;;;;14.13;12.77;;;17.40;84.80;17.90;96868.00;;;;5053638;28;20259;-84
2022/05/07 04:57:43;;;;;;;14.47;13.07;;;17.40;84.80;17.90;96870.00;;;;5054179;28;20303;-83
2022/05/07 05:00:14;;;;;;;14.50;13.10;;;17.40;84.80;18.00;96870.00;;;;5063335;28;20203;-84
2022/05/07 05:02:41;;;;;;;14.73;13.37;;;17.40;84.70;18.00;96866.00;;;;5060872;28;20227;-84
2022/05/07 05:05:09;;;;;;;14.47;13.07;;;17.50;84.80;18.00;96866.00;;;;5063377;28;20280;-84
2022/05/07 05:07:36;;;;;;;14.60;13.20;;;17.50;84.90;18.10;96869.00;;;;5049441;28;20227;-84
2022/05/07 05:10:04;;;;;;;14.90;13.27;;;17.50;84.90;18.10;96867.00;;;;5033760;28;20292;-83
2022/05/07 05:12:31;;;;;;;15.63;14.03;;;17.60;84.90;18.20;96872.00;;;;5061875;28;20973;-84
2022/05/07 05:15:04;;;;;;;15.13;13.53;;;17.60;84.70;18.20;96868.00;;;;5047059;28;20194;-84
2022/05/07 05:17:34;;;;;;;14.50;13.10;;;17.60;84.70;18.30;96877.00;;;;5049437;28;20220;-83
2022/05/07 05:20:06;;;;;;;14.30;12.97;;;17.70;84.70;18.30;96876.00;;;;5043865;28;20263;-84
2022/05/07 05:22:33;;;;;;;14.67;13.27;;;17.70;84.70;18.40;96882.00;;;;5069308;28;20687;-83
2022/05/07 05:25:00;;;;;;;15.50;14.00;;;17.70;84.60;18.40;96880.00;;;;5049208;28;20257;-84
2022/05/07 05:27:27;;;;;;;14.20;12.87;;;17.80;84.60;18.40;96883.00;;;;5049329;28;20238;-84
2022/05/07 05:29:55;;;;;;;13.80;12.50;;;17.80;84.40;18.50;96884.00;;;;5043818;28;20235;-84
2022/05/07 05:32:22;;;;;;;13.07;11.87;;;17.80;84.10;18.50;96885.00;;;;5051460;28;20253;-84
2022/05/07 05:34:53;;;;;;;15.10;12.77;;;17.90;84.20;18.50;96882.00;;;;5045806;28;20546;-84
2022/05/07 05:37:20;;;;;;;13.63;12.27;;;17.90;84.10;18.50;96892.00;;;;5050967;28;20216;-84
2022/05/07 05:39:48;;;;;;;13.87;12.57;;;17.90;84.30;18.60;96890.00;;;;5040698;28;20636;-86
2022/05/07 05:42:15;;;;;;;13.60;12.30;;;18.00;84.20;18.60;96894.00;;;;5044905;28;20575;-87
2022/05/07 05:44:43;;;;;;;13.33;12.03;;;18.00;84.20;18.70;96894.00;;;;5041704;28;20207;-87
2022/05/07 05:47:11;;;;;;;13.83;12.43;;;18.00;84.30;18.80;96903.00;;;;5046903;28;20244;-86
2022/05/07 05:49:38;;;;;;;13.27;11.90;;;18.10;84.20;18.80;96899.00;;;;5053475;28;20231;-86
2022/05/07 05:52:08;;;;;;;12.13;11.03;;;18.10;84.20;18.90;96903.00;;;;5051671;28;20307;-88
2022/05/07 05:54:37;;;;;;;12.73;11.53;;;18.10;83.80;18.90;96905.00;;;;5048513;28;20223;-87
2022/05/07 05:57:05;;;;;;;11.83;10.73;;;18.20;83.80;18.90;96900.00;;;;5049004;28;20220;-86
2022/05/07 05:59:33;;;;;;;11.77;10.77;;;18.20;83.90;19.00;96902.00;;;;5047496;28;20673;-87
2022/05/07 06:02:00;;;;;;;12.27;11.17;;;18.30;83.90;19.00;96896.00;;;;5039856;28;20367;-88
2022/05/07 06:04:27;;;;;;;11.83;10.73;;;18.30;83.80;19.00;96912.00;;;;5059199;28;20235;-85
2022/05/07 06:06:54;;;;;;;12.30;11.10;;;18.30;83.70;19.10;96908.00;;;;5054843;28;20220;-86
2022/05/07 06:09:23;;;;;;;12.03;10.83;;;18.40;83.80;19.10;96904.00;;;;5053217;28;20229;-90
2022/05/07 06:11:51;;;;;;;11.40;10.40;;;18.40;83.60;19.20;96912.00;;;;5055284;28;20629;-87
2022/05/07 06:14:18;;;;;;;11.03;10.00;;;18.50;83.70;19.20;96909.00;;;;5051061;28;20196;-87
2022/05/07 06:16:45;;;;;;;11.30;10.30;;;18.50;83.50;19.20;96908.00;;;;5073736;28;20212;-86
2022/05/07 06:19:12;;;;;;;11.37;10.37;;;18.50;83.20;19.30;96909.00;;;;5061906;28;20289;-87
2022/05/07 06:21:39;;;;;;;10.50;9.60;;;18.50;83.00;19.30;96901.00;;;;5063446;28;20625;-86
2022/05/07 06:30:00;;;;;;;10.40;9.50;;;18.60;82.80;19.30;96904.00;;;;5058074;28;20277;-87
2022/05/07 06:32:33;;;;;;;10.97;10.03;;;18.60;82.70;19.30;96910.00;;;;5048521;28;20243;-89
2022/05/07 06:35:00;;;;;;;9.87;8.97;;;18.60;82.60;19.40;96910.00;;;;5066925;28;20242;-88
2022/05/07 06:37:27;;;;;;;10.80;9.80;;;18.70;82.70;19.40;96905.00;;;;5059635;28;20918;-88
2022/05/07 06:39:54;;;;;;;10.53;9.53;;;18.70;82.50;19.40;96901.00;;;;5068480;28;20259;-86
2022/05/07 06:42:22;;;;;;;10.50;9.67;;;18.70;82.50;19.40;96908.00;;;;5049577;28;20225;-88
2022/05/07 06:44:50;;;;;;;11.03;9.93;;;18.70;82.50;19.40;96915.00;;;;5033509;28;20221;-87
2022/05/07 06:47:18;;;;;;;10.23;9.33;;;18.70;82.30;19.40;96908.00;;;;5055828;28;20240;-88
2022/05/07 06:49:45;;;;;;;10.37;9.47;;;18.80;82.20;19.50;96904.00;;;;5067243;28;20204;-88
2022/05/07 06:52:12;;;;;;;10.47;9.57;;;18.70;82.00;19.50;96905.00;;;;5052320;28;20251;-89
2022/05/07 06:54:40;;;;;;;10.37;9.47;;;18.70;81.90;19.50;96911.00;;;;5045284;28;20713;-89
2022/05/07 06:57:08;;;;;;;10.97;10.00;;;18.70;81.80;19.50;96916.00;;;;5061025;28;20212;-90
2022/05/07 06:59:37;;;;;;;11.30;10.30;;;18.80;82.00;19.50;96915.00;;;;5041141;28;20605;-89
2022/05/07 07:02:05;;;;;;;11.27;10.23;;;18.80;82.10;19.60;96911.00;;;;5044895;28;20208;-88
2022/05/07 07:04:32;;;;;;;11.77;10.63;;;18.80;82.40;19.60;96904.00;;;;5048724;28;20232;-92
2022/05/07 07:06:59;;;;;;;11.30;10.23;;;18.80;82.40;19.70;96922.00;;;;5043379;28;20346;-89
2022/05/07 07:09:26;;;;;;;10.53;9.57;;;18.80;82.10;19.70;96917.00;;;;5035312;28;20284;-92
2022/05/07 07:11:53;;;;;;;11.30;10.30;;;18.90;82.10;19.70;96920.00;;;;5035101;28;20701;-91
2022/05/07 07:14:21;;;;;;;11.60;10.60;;;19.00;82.10;19.80;96916.00;;;;5035007;28;20198;-90
2022/05/07 07:16:49;;;;;;;10.20;9.33;;;19.00;82.00;19.80;96917.00;;;;5034059;28;20241;-90
2022/05/07 07:19:17;;;;;;;10.53;9.63;;;19.00;81.90;19.90;96918.00;;;;5034441;28;20244;-87
2022/05/07 07:21:45;;;;;;;10.80;9.90;;;19.00;82.00;19.90;96922.00;;;;5051090;28;20195;-85
2022/05/07 07:24:12;;;;;;;10.53;9.63;;;19.10;82.10;19.90;96923.00;;;;5049438;28;20205;-86
2022/05/07 07:26:39;;;;;;;10.30;9.40;;;19.10;82.10;20.00;96921.00;;;;5047867;28;20300;-86
2022/05/07 07:29:06;;;;;;;11.00;10.00;;;19.10;82.00;20.10;96928.00;;;;5050423;28;20212;-86
2022/05/07 07:31:34;;;;;;;8.90;8.20;;;19.20;82.10;20.10;96923.00;;;;5048703;28;20227;-87
2022/05/07 07:34:03;;;;;;;9.20;8.40;;;19.30;81.70;20.20;96918.00;;;;5048484;28;20228;-87
2022/05/07 07:36:30;;;;;;;9.00;8.30;;;19.30;81.30;20.30;96921.00;;;;5050535;28;20368;-86
2022/05/07 07:38:58;;;;;;;8.90;8.20;;;19.40;81.40;20.30;96925.00;;;;5051418;28;20247;-87
2022/05/07 07:41:25;;;;;;;9.13;8.43;;;19.40;81.10;20.30;96920.00;;;;5047434;28;20684;-86
2022/05/07 07:43:52;;;;;;;8.63;8.03;;;19.40;81.00;20.30;96924.00;;;;5053687;28;20288;-87
2022/05/07 07:49:06;;;;;;;8.93;8.23;;;19.50;80.50;20.30;96921.00;;;;5035394;28;20208;-88
2022/05/07 07:51:33;;;;;;;8.07;7.47;;;19.50;80.20;20.30;96928.00;;;;5050963;28;20198;-88
2022/05/07 07:54:00;;;;;;;8.90;8.10;;;19.50;80.30;20.30;96924.00;;;;5044390;28;20642;-87
2022/05/07 07:56:27;;;;;;;8.90;8.20;;;19.50;80.40;20.30;96925.00;;;;5036065;28;20221;-88
2022/05/07 07:58:54;;;;;;;8.50;7.80;;;19.60;80.40;20.30;96926.00;;;;5048983;28;20597;-87
2022/05/07 08:01:21;;;;;;;9.20;8.40;;;19.60;80.20;20.30;96933.00;;;;5052140;28;20288;-86
2022/05/07 08:03:48;;;;;;;8.87;8.17;;;19.60;80.10;20.40;96931.00;;;;5042537;28;20280;-86
2022/05/07 08:06:17;;;;;;;8.50;7.83;;;19.60;80.40;20.40;96929.00;;;;5038179;28;20268;-85
2022/05/07 08:11:41;;;;;;;9.50;8.70;;;19.60;80.70;20.40;96935.00;;;;5036679;28;20757;-86
2022/05/07 08:14:09;;;;;;;9.33;8.53;;;19.60;80.50;20.40;96936.00;;;;5045305;28;20358;-85
2022/05/07 08:16:37;;;;;;;8.47;7.77;;;19.60;81.10;20.50;96934.00;;;;5057082;28;20223;-85
2022/05/07 08:19:06;;;;;;;9.20;8.50;;;19.60;80.60;20.50;96945.00;;;;5053664;28;20278;-85
2022/05/07 08:21:34;;;;;;;8.33;7.63;;;19.70;80.80;20.60;96937.00;;;;5038293;28;20296;-86
2022/05/07 08:24:02;;;;;;;8.50;7.80;;;19.70;80.90;20.70;96939.00;;;;5045694;28;20211;-84
2022/05/07 08:26:29;;;;;;;8.33;7.53;;;19.80;81.00;20.70;96944.00;;;;5039997;28;20300;-84
2022/05/07 08:36:38;;;;;;;7.90;7.30;;;20.00;80.40;20.90;96945.00;;;;5085980;22;20215;-80
2022/05/07 08:39:05;;;;;;;8.77;7.33;;;20.00;80.00;20.90;96951.00;;;;5073632;28;20223;-80
2022/05/07 08:41:32;;;;;;;8.03;7.30;;;20.00;79.80;20.80;96951.00;;;;5076160;28;20195;-79
2022/05/07 08:44:00;;;;;;;8.13;7.43;;;20.00;79.90;20.90;96944.00;;;;5070268;28;20204;-79
2022/05/07 08:46:27;;;;;;;7.73;7.13;;;20.00;79.90;20.90;96946.00;;;;5069983;28;20239;-80
2022/05/07 08:48:56;;;;;;;9.33;8.17;;;20.00;79.60;21.00;96953.00;;;;5071028;28;20260;-79
2022/05/07 08:51:23;;;;;;;8.30;7.60;;;20.10;79.80;21.00;96948.00;;;;5072502;28;20211;-79
2022/05/07 08:53:53;;;;;;;8.30;7.57;;;20.10;80.00;21.10;96952.00;;;;5067369;28;20226;-79
2022/05/07 08:56:21;;;;;;;7.97;7.23;;;20.10;79.80;21.10;96958.00;;;;5077732;28;20223;-80
2022/05/07 08:58:48;;;;;;;7.77;7.17;;;20.20;79.60;21.20;96954.00;;;;5069615;28;20196;-80
2022/05/07 09:01:16;;;;;;;7.93;7.33;;;20.20;79.50;21.20;96953.00;;;;5075386;28;20242;-80
2022/05/07 09:03:46;;;;;;;7.50;7.00;;;20.20;79.10;21.30;96953.00;;;;5073159;28;20600;-80
2022/05/07 09:06:22;;;;;;;8.00;7.30;;;20.30;79.20;21.30;96969.00;;;;5074450;28;20307;-82
2022/05/07 09:08:52;;;;;;;7.67;7.07;;;20.30;78.80;21.40;96961.00;;;;5070894;28;20198;-79
2022/05/07 09:11:20;;;;;;;7.33;6.73;;;20.40;79.00;21.40;96966.00;;;;5074194;28;20278;-80
2022/05/07 09:13:48;;;;;;;6.97;6.47;;;20.40;79.00;21.50;96967.00;;;;5072520;28;20220;-80
2022/05/07 09:16:15;;;;;;;7.07;6.57;;;20.40;78.70;21.50;96964.00;;;;5077795;28;20587;-80
2022/05/07 09:18:49;;;;;;;7.10;6.60;;;20.50;78.70;21.50;96967.00;;;;5075346;28;20200;-80
2022/05/07 09:21:26;;;;;;;7.30;6.80;;;20.50;78.60;21.50;96962.00;;;;5086969;28;20195;-79
2022/05/07 09:24:06;;;;;;;7.20;6.70;;;20.60;79.00;21.60;96972.00;;;;5080048;28;20490;-79
2022/05/07 09:26:37;;;;;;;7.67;6.97;;;20.60;78.30;21.60;96980.00;;;;5079800;28;20249;-80
2022/05/07 09:29:09;;;;;;;7.67;7.07;;;20.60;78.90;21.60;96971.00;;;;5081136;28;20207;-80
2022/05/07 09:31:37;;;;;;;7.27;6.67;;;20.60;78.40;21.60;96971.00;;;;5078330;28;20192;-79
2022/05/07 09:36:57;;;;;;;6.60;6.10;;;20.70;77.70;21.50;96973.00;;;;5069713;28;20230;-79
2022/05/07 09:39:33;;;;;;;7.57;6.57;;;20.70;78.00;21.50;96973.00;;;;5076134;28;20204;-80
2022/05/07 09:42:01;;;;;;;6.80;6.20;;;20.60;77.00;21.50;96971.00;;;;5081439;28;20191;-80
2022/05/07 09:44:28;;;;;;;7.10;6.40;;;20.60;78.10;21.50;96974.00;;;;5080959;28;20287;-80
2022/05/07 09:46:56;;;;;;;7.17;6.67;;;20.60;78.00;21.50;96972.00;;;;5079146;28;20248;-80
2022/05/07 09:49:27;;;;;;;8.17;7.53;;;20.60;78.00;21.50;96966.00;;;;5074575;28;20647;-80
2022/05/07 09:51:55;;;;;;;7.97;7.27;;;20.60;77.90;21.50;96963.00;;;;5073365;28;20203;-80
2022/05/07 09:59:57;;;;;;;7.60;7.00;;;20.70;78.50;21.50;96960.00;;;;5073944;28;20590;-80
2022/05/07 10:02:46;;;;;;;7.87;7.27;;;20.70;78.50;21.50;96960.00;;;;5075961;28;20568;-80
2022/05/07 10:05:40;;;;;;;8.63;7.80;;;20.70;78.60;21.40;96965.00;;;;5073096;28;20211;-80
2022/05/07 10:08:26;;;;;;;7.70;7.00;;;20.60;77.60;21.40;96963.00;;;;5080220;28;20196;-80
2022/05/07 10:10:54;;;;;;;8.20;7.50;;;20.60;77.60;21.30;96963.00;;;;5068296;28;20196;-80
2022/05/07 10:13:23;;;;;;;7.77;7.17;;;20.50;78.10;21.30;96959.00;;;;5075737;28;20592;-80
2022/05/07 10:16:00;;;;;;;7.27;6.67;;;20.50;78.20;21.30;96957.00;;;;5077835;28;20202;-81
2022/05/07 10:18:35;;;;;;;7.00;6.50;;;20.50;77.50;21.20;96958.00;;;;5072207;28;20201;-80
2022/05/07 10:21:12;;;;;;;6.90;6.33;;;20.50;77.70;21.20;96958.00;;;;5075958;28;20661;-80
2022/05/07 10:23:50;;;;;;;6.37;5.97;;;20.40;78.00;21.20;96955.00;;;;5067508;28;20206;-80
2022/05/07 10:26:18;;;;;;;6.20;5.73;;;20.40;77.90;21.20;96959.00;;;;5070094;28;20245;-80
2022/05/07 10:28:47;;;;;;;5.77;5.33;;;20.40;78.60;21.30;96956.00;;;;5080250;28;20658;-80
2022/05/07 10:31:21;;;;;;;5.17;4.87;;;20.50;78.60;21.30;96949.00;;;;5076749;28;20192;-82
2022/05/07 10:33:49;;;;;;;5.57;5.17;;;20.40;78.20;21.40;96950.00;;;;5068151;28;20217;-81
2022/05/07 10:36:18;;;;;;;5.60;5.20;;;20.40;78.70;21.50;96950.00;;;;5076241;28;20244;-83
2022/05/07 10:38:46;;;;;;;5.47;5.10;;;20.50;79.10;21.50;96951.00;;;;5083579;28;20279;-81
2022/05/07 10:41:24;;;;;;;5.50;5.10;;;20.50;79.20;21.70;96956.00;;;;5076046;28;20727;-80
2022/05/07 10:44:06;;;;;;;5.80;5.30;;;20.60;78.20;21.80;96946.00;;;;5077110;28;20263;-81
2022/05/07 10:46:43;;;;;;;5.70;5.30;;;20.70;78.00;21.90;96946.00;;;;5077268;28;20230;-81
2022/05/07 10:49:11;;;;;;;5.50;5.10;;;20.80;78.80;22.00;96951.00;;;;5079676;28;20222;-81
2022/05/07 10:51:50;;;;;;;5.50;5.10;;;20.80;78.90;22.20;96953.00;;;;5081261;28;20205;-81
2022/05/07 10:54:21;;;;;;;5.83;4.30;;;20.90;78.90;22.30;96956.00;;;;5080766;28;20222;-80
2022/05/07 10:56:53;;;;;;;4.07;3.77;;;21.00;78.70;22.40;96945.00;;;;5082422;28;20212;-80
2022/05/07 10:59:25;;;;;;;3.43;3.13;;;21.10;77.60;22.50;96949.00;;;;5071726;28;20198;-81
2022/05/07 11:01:52;;;;;;;4.20;3.90;;;21.20;77.60;22.50;96950.00;;;;5075616;28;20211;-80
2022/05/07 11:04:22;;;;;;;3.57;3.37;;;21.30;77.60;22.60;96937.00;;;;5071496;28;20283;-81
2022/05/07 11:06:51;;;;;;;3.67;3.47;;;21.40;77.30;22.70;96940.00;;;;5074816;28;20227;-81
2022/05/07 11:09:22;;;;;;;4.13;3.83;;;21.40;77.60;22.70;96939.00;;;;5080550;28;20195;-81
2022/05/07 11:11:53;;;;;;;4.27;4.07;;;21.50;77.50;22.80;96942.00;;;;5080500;28;20202;-81
2022/05/07 11:14:25;;;;;;;3.97;3.77;;;21.50;77.00;22.80;96940.00;;;;5082360;28;20225;-82
2022/05/07 11:16:53;;;;;;;4.20;4.00;;;21.60;76.40;22.90;96941.00;;;;5080281;28;20212;-82
2022/05/07 11:19:28;;;;;;;3.93;3.63;;;21.70;76.70;23.00;96937.00;;;;5072517;28;20196;-81
2022/05/07 11:21:59;;;;;;;3.73;3.53;;;21.70;76.00;23.00;96928.00;;;;5069399;28;20191;-81
2022/05/07 11:24:27;;;;;;;4.20;3.90;;;21.80;76.50;23.10;96932.00;;;;5071338;28;20218;-82
2022/05/07 11:26:58;;;;;;;3.70;3.50;;;21.90;76.40;23.20;96936.00;;;;5073912;28;20212;-81
2022/05/07 11:29:28;;;;;;;4.40;4.10;;;21.90;76.20;23.20;96932.00;;;;5072006;28;20287;-81